PWSweather.com
Personal Weather Stations
Station Observations

SkegnessGB

Lat: 53.147585, Lon: 0.345774

Elevation: 18

Station Type: Fine Offset WH3080

http://www.skegnessweather.info/

Latest ConditionsUpdated 3:10:00 AM GMT Saturday, Mar 23, 2019
Currently Today's Max Today's Min Today's Average
Temperature 48.0°F8.9°C 48.9°F9.4°C 47.8°F8.8°C 48.4°F9.1°C
Dew Point 39.1°F3.9°C 40.6°F4.8°C 39.1°F3.9°C 39.9°F4.4°C
Winds 2.0 mph WSW3.2 kmh WSW 2.8 mph -4.5 kmh - - 1.6 mph 2.6 kmh
Wind Gusts 3.4 mph5.5 kmh 4.9 mph7.9 kmh - -
Humidity 71% 74% 71% 72%
Pressure 30.34 in1027.4 mb 30.34 in1027.4 mb 30.30 in1026.1 mb -
Hour Temp Dew Point Humidity Winds Wind Gusts Pressure Precip Precip Rate Daily Precip Total
03:10 AM 48.0°F8.9°C 39.1°F3.9°C 71% 2.0 mph WSW3.2 kmh WSW 3.4 mph5.5 kmh 30.34 in1027.4 mb 0.00 in0.0 mm 0.00 in0.0 mm 0.00 in0.0 mm
03:00 AM 48.0°F8.9°C 39.1°F3.9°C 71% 0.2 mph WSW0.3 kmh WSW 3.4 mph5.5 kmh 30.34 in1027.4 mb 0.00 in0.0 mm 0.00 in0.0 mm 0.00 in0.0 mm
02:50 AM 48.0°F8.9°C 39.1°F3.9°C 71% 1.2 mph SW1.9 kmh SW 1.7 mph2.7 kmh 30.33 in1027.1 mb 0.00 in0.0 mm 0.00 in0.0 mm 0.00 in0.0 mm
02:40 AM 48.2°F9.0°C 39.2°F4.0°C 71% 1.3 mph SE2.1 kmh SE 3.4 mph5.5 kmh 30.32 in1026.8 mb 0.00 in0.0 mm 0.00 in0.0 mm 0.00 in0.0 mm
02:30 AM 48.4°F9.1°C 39.4°F4.1°C 71% 1.3 mph E2.1 kmh E 2.5 mph4.0 kmh 30.32 in1026.8 mb 0.00 in0.0 mm 0.00 in0.0 mm 0.00 in0.0 mm
02:20 AM 48.6°F9.2°C 39.6°F4.2°C 71% 2.0 mph E3.2 kmh E 4.2 mph6.8 kmh 30.32 in1026.8 mb 0.00 in0.0 mm 0.00 in0.0 mm 0.00 in0.0 mm
02:10 AM 48.7°F9.3°C 39.8°F4.3°C 71% 2.1 mph S3.4 kmh S 4.2 mph6.8 kmh 30.31 in1026.4 mb 0.00 in0.0 mm 0.00 in0.0 mm 0.00 in0.0 mm
02:00 AM 48.7°F9.3°C 39.8°F4.3°C 71% 2.0 mph SSW3.2 kmh SSW 4.9 mph7.9 kmh 30.32 in1026.8 mb 0.00 in0.0 mm 0.00 in0.0 mm 0.00 in0.0 mm
01:50 AM 48.7°F9.3°C 40.1°F4.5°C 72% 1.6 mph S2.6 kmh S 4.9 mph7.9 kmh 30.32 in1026.8 mb 0.00 in0.0 mm 0.00 in0.0 mm 0.00 in0.0 mm
01:40 AM 48.7°F9.3°C 40.1°F4.5°C 72% 1.9 mph NW3.1 kmh NW 3.4 mph5.5 kmh 30.32 in1026.8 mb 0.00 in0.0 mm 0.00 in0.0 mm 0.00 in0.0 mm
01:30 AM 48.9°F9.4°C 40.6°F4.8°C 73% 1.6 mph SSW2.6 kmh SSW 2.5 mph4.0 kmh 30.32 in1026.8 mb 0.00 in0.0 mm 0.00 in0.0 mm 0.00 in0.0 mm
01:20 AM 48.9°F9.4°C 40.6°F4.8°C 73% 1.0 mph SW1.6 kmh SW 3.4 mph5.5 kmh 30.32 in1026.8 mb 0.00 in0.0 mm 0.00 in0.0 mm 0.00 in0.0 mm
01:10 AM 48.7°F9.3°C 40.5°F4.7°C 73% 0.1 mph SW0.2 kmh SW 1.7 mph2.7 kmh 30.31 in1026.4 mb 0.00 in0.0 mm 0.00 in0.0 mm 0.00 in0.0 mm
01:00 AM 48.6°F9.2°C 40.6°F4.8°C 74% 1.1 mph S1.8 kmh S 2.5 mph4.0 kmh 30.31 in1026.4 mb 0.00 in0.0 mm 0.00 in0.0 mm 0.00 in0.0 mm
12:50 AM 48.6°F9.2°C 40.6°F4.8°C 74% 1.5 mph SW2.4 kmh SW 2.5 mph4.0 kmh 30.30 in1026.1 mb 0.00 in0.0 mm 0.00 in0.0 mm 0.00 in0.0 mm
12:40 AM 48.4°F9.1°C 40.5°F4.7°C 74% 1.8 mph SSW2.9 kmh SSW 3.4 mph5.5 kmh 30.30 in1026.1 mb 0.00 in0.0 mm 0.00 in0.0 mm 0.00 in0.0 mm
12:30 AM 48.0°F8.9°C 39.8°F4.3°C 73% 2.8 mph SSW4.5 kmh SSW 4.2 mph6.8 kmh 30.30 in1026.1 mb 0.00 in0.0 mm 0.00 in0.0 mm 0.00 in0.0 mm
12:20 AM 47.8°F8.8°C 39.6°F4.2°C 73% 1.7 mph SW2.7 kmh SW 3.4 mph5.5 kmh 30.30 in1026.1 mb 0.00 in0.0 mm 0.00 in0.0 mm 0.00 in0.0 mm
12:10 AM 48.0°F8.9°C 39.8°F4.3°C 73% 2.7 mph WSW4.3 kmh WSW 4.9 mph7.9 kmh 30.30 in1026.1 mb 0.00 in0.0 mm 0.00 in0.0 mm 0.00 in0.0 mm
12:00 AM 47.8°F8.8°C 39.6°F4.2°C 73% 2.5 mph SW4.0 kmh SW 4.9 mph7.9 kmh 30.30 in1026.1 mb 0.00 in0.0 mm 0.00 in0.0 mm 0.00 in0.0 mm